createdAt,value
2018-07-04T00:01:53.741Z,6.63
2018-07-04T00:04:34.039Z,7.50
2018-07-04T00:07:13.817Z,4.63
2018-07-04T00:09:53.511Z,6.40
2018-07-04T00:12:33.215Z,8.70
2018-07-04T00:15:12.979Z,6.53
2018-07-04T00:17:52.691Z,5.30
2018-07-04T00:20:38.836Z,7.73
2018-07-04T00:23:18.568Z,8.27
2018-07-04T00:25:58.235Z,5.20
2018-07-04T00:28:38.245Z,8.37
2018-07-04T00:31:17.808Z,8.57
2018-07-04T00:33:57.607Z,4.67
2018-07-04T00:36:37.318Z,7.27
2018-07-04T00:39:17.006Z,6.17
2018-07-04T00:41:56.615Z,4.80
2018-07-04T00:44:36.302Z,4.87
2018-07-04T00:47:16.046Z,8.37
2018-07-04T00:49:55.738Z,5.97
2018-07-04T00:52:35.506Z,7.33
2018-07-04T00:55:09.219Z,7.17
2018-07-04T00:57:48.988Z,6.10
2018-07-04T01:00:28.795Z,4.90
2018-07-04T01:03:09.004Z,5.53
2018-07-04T01:05:48.742Z,6.50
2018-07-04T01:08:28.395Z,6.00
2018-07-04T01:11:08.101Z,7.77
2018-07-04T01:13:47.747Z,5.43
2018-07-04T01:16:27.587Z,6.97
2018-07-04T01:19:07.460Z,6.17
2018-07-04T01:21:47.133Z,9.93
2018-07-04T01:24:26.858Z,7.53
2018-07-04T01:27:06.657Z,6.90
2018-07-04T01:29:40.587Z,6.10
2018-07-04T01:32:14.471Z,7.17
2018-07-04T01:34:54.139Z,9.50
2018-07-04T01:37:33.809Z,6.50
2018-07-04T01:40:13.928Z,4.90
2018-07-04T01:42:53.788Z,4.50
2018-07-04T01:45:33.444Z,4.73
2018-07-04T01:48:13.097Z,7.50
2018-07-04T01:50:52.843Z,6.40
2018-07-04T01:53:32.715Z,6.53
2018-07-04T01:56:12.399Z,4.70
2018-07-04T01:58:52.172Z,6.43
2018-07-04T02:01:31.878Z,7.70
2018-07-04T02:04:11.639Z,4.87
2018-07-04T02:06:51.448Z,4.63
2018-07-04T02:09:31.138Z,5.33
2018-07-04T02:12:10.976Z,5.20
2018-07-04T02:14:50.629Z,5.73
2018-07-04T02:17:30.251Z,5.50
2018-07-04T02:20:10.083Z,4.30
2018-07-04T02:22:49.766Z,4.73
2018-07-04T02:25:29.418Z,6.33
2018-07-04T02:28:09.095Z,7.93
2018-07-04T02:30:49.028Z,7.80
2018-07-04T02:33:28.726Z,7.57
2018-07-04T02:36:08.489Z,13.97
2018-07-04T02:38:48.177Z,7.17
2018-07-04T02:41:27.830Z,5.60
2018-07-04T02:44:07.428Z,7.13
2018-07-04T02:46:47.043Z,5.73
2018-07-04T02:49:26.833Z,9.33
2018-07-04T02:52:06.664Z,6.27
2018-07-04T02:54:46.167Z,7.10
2018-07-04T02:57:25.789Z,7.67
2018-07-04T03:00:05.387Z,7.80
2018-07-04T03:02:45.109Z,7.13
2018-07-04T03:05:24.725Z,8.40
2018-07-04T03:08:04.405Z,8.43
2018-07-04T03:10:38.129Z,5.97
2018-07-04T03:13:17.818Z,5.70
2018-07-04T03:15:57.476Z,6.80
2018-07-04T03:18:37.257Z,6.40
2018-07-04T03:21:16.968Z,7.27
2018-07-04T03:23:56.651Z,7.67
2018-07-04T03:26:36.359Z,6.80
2018-07-04T03:29:16.239Z,8.73
2018-07-04T03:31:56.091Z,5.73
2018-07-04T03:34:36.089Z,8.33
2018-07-04T03:37:15.868Z,9.23
2018-07-04T03:39:55.530Z,8.10
2018-07-04T03:42:35.161Z,7.20
2018-07-04T03:45:14.989Z,7.83
2018-07-04T03:47:54.723Z,9.20
2018-07-04T03:50:34.352Z,13.93
2018-07-04T03:53:14.120Z,9.07
2018-07-04T03:55:54.021Z,6.73
2018-07-04T03:58:33.966Z,9.30
2018-07-04T04:01:13.814Z,8.23
2018-07-04T04:03:53.795Z,6.87
2018-07-04T04:06:33.768Z,8.93
2018-07-04T04:09:13.518Z,7.80
2018-07-04T04:11:53.297Z,8.23
2018-07-04T04:14:32.996Z,10.03
2018-07-04T04:17:12.726Z,8.50
2018-07-04T04:19:52.435Z,8.80
2018-07-04T04:22:32.170Z,6.43
2018-07-04T04:25:12.451Z,7.33
2018-07-04T04:27:52.491Z,7.97
2018-07-04T04:30:32.148Z,6.73
2018-07-04T04:33:11.757Z,8.20
2018-07-04T04:35:51.427Z,6.13
2018-07-04T04:38:31.484Z,8.50
2018-07-04T04:41:11.110Z,6.87
2018-07-04T04:43:50.835Z,9.10
2018-07-04T04:46:30.683Z,9.03
2018-07-04T04:49:04.606Z,7.27
2018-07-04T04:51:38.219Z,13.10
2018-07-04T04:54:18.213Z,8.77
2018-07-04T04:56:58.011Z,7.10
2018-07-04T04:59:37.860Z,8.60
2018-07-04T05:02:17.850Z,8.70
2018-07-04T05:04:57.455Z,7.13
2018-07-04T05:07:37.483Z,7.73
2018-07-04T05:10:17.253Z,8.57
2018-07-04T05:12:56.883Z,7.77
2018-07-04T05:15:36.762Z,12.13
2018-07-04T05:18:16.490Z,8.27
2018-07-04T05:20:56.303Z,8.73
2018-07-04T05:23:30.099Z,9.87
2018-07-04T05:26:09.916Z,11.03
2018-07-04T05:28:49.741Z,8.23
2018-07-04T05:31:29.629Z,9.80
2018-07-04T05:34:09.426Z,14.67
2018-07-04T05:36:49.293Z,11.57
2018-07-04T05:39:29.100Z,14.10
2018-07-04T05:42:03.462Z,9.77
2018-07-04T05:44:43.327Z,12.07
2018-07-04T05:47:23.070Z,13.27
2018-07-04T05:50:03.041Z,11.17
2018-07-04T05:52:43.394Z,10.70
2018-07-04T05:55:23.233Z,9.73
2018-07-04T05:58:03.239Z,10.40
2018-07-04T06:00:43.071Z,10.90
2018-07-04T06:03:23.118Z,9.97
2018-07-04T06:06:03.326Z,10.33
2018-07-04T06:08:43.034Z,8.80
2018-07-04T06:11:22.672Z,8.70
2018-07-04T06:14:02.883Z,9.83
2018-07-04T06:16:43.136Z,12.57
2018-07-04T06:19:23.829Z,8.27
2018-07-04T06:22:05.145Z,9.53
2018-07-04T06:24:45.226Z,8.57
2018-07-04T06:27:25.305Z,7.33
2018-07-04T06:30:05.156Z,9.77
2018-07-04T06:32:45.699Z,7.70
2018-07-04T06:35:26.507Z,7.80
2018-07-04T06:37:53.943Z,6.83
2018-07-04T06:40:21.489Z,7.97
2018-07-04T06:42:49.123Z,7.97
2018-07-04T06:45:16.934Z,5.90
2018-07-04T06:47:44.453Z,6.57
2018-07-04T06:50:12.749Z,4.63
2018-07-04T06:52:41.536Z,5.17
2018-07-04T06:55:08.916Z,7.97
2018-07-04T06:57:36.884Z,6.67
2018-07-04T07:00:05.450Z,6.57
2018-07-04T07:02:33.159Z,5.57
2018-07-04T07:05:14.354Z,4.53
2018-07-04T07:07:54.870Z,5.17
2018-07-04T07:10:35.253Z,6.60
2018-07-04T07:13:15.700Z,5.87
2018-07-04T07:15:55.348Z,4.00
2018-07-04T07:18:35.213Z,4.80
2018-07-04T07:21:15.318Z,4.77
2018-07-04T07:23:55.504Z,7.90
2018-07-04T07:26:35.379Z,7.10
2018-07-04T07:29:09.860Z,5.40
2018-07-04T07:31:49.515Z,4.90
2018-07-04T07:34:29.455Z,4.60
2018-07-04T07:37:09.569Z,6.23
2018-07-04T07:39:49.476Z,5.43
2018-07-04T07:42:29.220Z,7.90
2018-07-04T07:45:09.362Z,10.50
2018-07-04T07:47:49.426Z,4.57
2018-07-04T07:50:29.414Z,3.73
2018-07-04T07:53:09.034Z,5.80
2018-07-04T07:55:48.808Z,4.47
2018-07-04T07:58:29.160Z,4.00
2018-07-04T08:01:08.945Z,6.03
2018-07-04T08:03:48.831Z,8.97
2018-07-04T08:06:29.149Z,3.90
2018-07-04T08:09:09.131Z,7.63
2018-07-04T08:11:49.559Z,4.70
2018-07-04T08:14:29.215Z,4.87
2018-07-04T08:17:08.956Z,7.10
2018-07-04T08:19:48.931Z,4.43
2018-07-04T08:22:28.835Z,4.37
2018-07-04T08:25:08.843Z,9.17
2018-07-04T08:27:49.036Z,5.87
2018-07-04T08:30:28.743Z,4.03
2018-07-04T08:33:08.508Z,9.17
2018-07-04T08:35:49.415Z,5.57
2018-07-04T08:38:30.012Z,6.93
2018-07-04T08:41:11.133Z,3.90
2018-07-04T08:43:51.321Z,4.97
2018-07-04T08:46:31.524Z,3.77
2018-07-04T08:49:11.407Z,2.93
2018-07-04T08:51:51.014Z,5.03
2018-07-04T08:54:31.023Z,4.50
2018-07-04T08:57:10.909Z,4.00
2018-07-04T08:59:51.125Z,4.13
2018-07-04T09:02:31.505Z,6.67
2018-07-04T09:05:11.334Z,5.23
2018-07-04T09:07:51.112Z,7.43
2018-07-04T09:10:31.133Z,3.47
2018-07-04T09:13:12.070Z,3.33
2018-07-04T09:15:52.277Z,5.40
2018-07-04T09:18:32.458Z,3.20
2018-07-04T09:21:12.166Z,5.17
2018-07-04T09:23:51.949Z,3.63
2018-07-04T09:26:31.469Z,2.70
2018-07-04T09:29:11.387Z,2.60
2018-07-04T09:31:51.454Z,2.10
2018-07-04T09:34:31.373Z,2.87
2018-07-04T09:37:11.180Z,2.67
2018-07-04T09:39:51.304Z,4.27
2018-07-04T09:42:31.871Z,2.67
2018-07-04T09:45:11.759Z,2.70
2018-07-04T09:47:51.779Z,2.60
2018-07-04T09:50:31.568Z,7.70
2018-07-04T09:53:11.255Z,4.90
2018-07-04T09:55:51.112Z,3.73
2018-07-04T09:58:30.734Z,2.90
2018-07-04T10:01:15.891Z,4.67
2018-07-04T10:03:55.649Z,5.47
2018-07-04T10:06:35.512Z,2.47
2018-07-04T10:09:15.665Z,2.07
2018-07-04T10:11:55.238Z,3.60
2018-07-04T10:14:35.040Z,5.27
2018-07-04T10:17:15.036Z,4.10
2018-07-04T10:19:56.960Z,3.40
2018-07-04T10:22:36.632Z,4.03
2018-07-04T10:25:16.478Z,4.77
2018-07-04T10:27:56.464Z,3.63
2018-07-04T10:30:36.795Z,7.87
2018-07-04T10:33:16.557Z,4.03
2018-07-04T10:35:56.302Z,5.00
2018-07-04T10:38:36.097Z,5.37
2018-07-04T10:41:16.161Z,3.03
2018-07-04T10:43:56.457Z,4.67
2018-07-04T10:46:36.329Z,5.47
2018-07-04T10:49:16.360Z,6.43
2018-07-04T10:51:56.070Z,3.00
2018-07-04T10:54:29.683Z,2.83
2018-07-04T10:57:09.750Z,4.77
2018-07-04T10:59:49.797Z,3.10
2018-07-04T11:02:29.521Z,4.97
2018-07-04T11:05:03.270Z,4.23
2018-07-04T11:07:43.581Z,4.43
2018-07-04T11:10:24.207Z,4.70
2018-07-04T11:13:04.001Z,3.30
2018-07-04T11:15:43.802Z,5.07
2018-07-04T11:18:23.631Z,4.70
2018-07-04T11:21:03.583Z,5.67
2018-07-04T11:23:43.058Z,4.37
2018-07-04T11:26:23.261Z,7.37
2018-07-04T11:29:03.092Z,4.20
2018-07-04T11:31:44.169Z,6.00
2018-07-04T11:34:24.003Z,4.47
2018-07-04T11:36:57.722Z,6.53
2018-07-04T11:39:37.555Z,2.87
2018-07-04T11:42:17.391Z,4.73
2018-07-04T11:44:57.419Z,3.27
2018-07-04T11:47:25.177Z,3.77
2018-07-04T11:49:53.060Z,5.10
2018-07-04T11:52:20.431Z,4.80
2018-07-04T11:54:48.170Z,7.23
2018-07-04T11:57:15.575Z,4.53
2018-07-04T11:59:43.340Z,3.53
2018-07-04T12:02:10.979Z,6.40
2018-07-04T12:04:50.659Z,5.03
2018-07-04T12:07:18.080Z,3.47
2018-07-04T12:09:45.742Z,3.60
2018-07-04T12:12:13.624Z,3.17
2018-07-04T12:14:41.016Z,3.60
2018-07-04T12:17:08.476Z,4.47
2018-07-04T12:19:36.336Z,5.30
2018-07-04T12:22:04.104Z,4.60
2018-07-04T12:24:32.395Z,3.20
2018-07-04T12:27:00.224Z,3.80
2018-07-04T12:29:28.188Z,5.93
2018-07-04T12:31:55.656Z,3.80
2018-07-04T12:34:23.094Z,5.20
2018-07-04T12:36:50.710Z,3.33
2018-07-04T12:39:18.637Z,5.03
2018-07-04T12:41:46.286Z,6.27
2018-07-04T12:44:13.903Z,3.93
2018-07-04T12:46:41.869Z,4.07
2018-07-04T12:49:09.279Z,5.53
2018-07-04T12:51:36.765Z,4.43
2018-07-04T12:54:09.709Z,4.77
2018-07-04T12:56:49.275Z,6.50
2018-07-04T12:59:29.215Z,4.40
2018-07-04T13:02:08.971Z,4.17
2018-07-04T13:04:48.951Z,4.80
2018-07-04T13:07:28.759Z,6.37
2018-07-04T13:10:08.518Z,5.67
2018-07-04T13:12:48.819Z,4.97
2018-07-04T13:15:28.855Z,5.27
2018-07-04T13:18:08.901Z,4.93
2018-07-04T13:20:48.692Z,3.70
2018-07-04T13:23:28.396Z,4.77
2018-07-04T13:26:08.169Z,8.13
2018-07-04T13:28:47.956Z,6.07
2018-07-04T13:31:28.316Z,4.10
2018-07-04T13:34:08.102Z,7.43
2018-07-04T13:36:47.762Z,4.60
2018-07-04T13:39:28.561Z,5.07
2018-07-04T13:42:08.209Z,5.93
2018-07-04T13:44:47.827Z,7.30
2018-07-04T13:47:27.833Z,7.03
2018-07-04T13:50:07.995Z,7.13
2018-07-04T13:52:47.834Z,5.03
2018-07-04T13:55:27.741Z,6.13
2018-07-04T13:58:07.484Z,3.50
2018-07-04T14:00:47.198Z,5.10
2018-07-04T14:03:27.813Z,4.83
2018-07-04T14:06:07.459Z,4.27
2018-07-04T14:08:47.120Z,6.53
2018-07-04T14:11:26.904Z,6.83
2018-07-04T14:14:06.777Z,5.97
2018-07-04T14:16:47.403Z,5.90
2018-07-04T14:19:27.848Z,4.40
2018-07-04T14:22:07.863Z,3.40
2018-07-04T14:24:47.709Z,7.47
2018-07-04T14:27:22.149Z,3.50
2018-07-04T14:30:01.901Z,5.27
2018-07-04T14:32:42.168Z,4.10
2018-07-04T14:35:21.870Z,3.03
2018-07-04T14:38:01.625Z,2.93
2018-07-04T14:40:41.392Z,5.13
2018-07-04T14:43:21.519Z,4.17
2018-07-04T14:46:01.458Z,2.90
2018-07-04T14:48:41.493Z,7.57
2018-07-04T14:51:21.285Z,3.37
2018-07-04T14:54:01.282Z,5.53
2018-07-04T14:56:41.170Z,3.23
2018-07-04T14:59:20.903Z,4.27
2018-07-04T15:02:01.210Z,3.80
2018-07-04T15:04:41.051Z,3.40
2018-07-04T15:07:20.694Z,6.53
2018-07-04T15:10:00.363Z,3.17
2018-07-04T15:12:40.219Z,3.73
2018-07-04T15:15:19.896Z,3.43
2018-07-04T15:17:59.665Z,4.70
2018-07-04T15:20:39.237Z,3.57
2018-07-04T15:23:19.071Z,4.03
2018-07-04T15:25:58.907Z,6.13
2018-07-04T15:28:38.981Z,5.83
2018-07-04T15:31:18.591Z,8.60
2018-07-04T15:33:58.531Z,4.57
2018-07-04T15:36:38.408Z,3.27
2018-07-04T15:39:18.139Z,4.63
2018-07-04T15:41:52.357Z,3.30
2018-07-04T15:44:32.021Z,6.20
2018-07-04T15:47:11.794Z,3.60
2018-07-04T15:49:51.656Z,3.50
2018-07-04T15:52:31.916Z,3.77
2018-07-04T15:55:12.003Z,3.87
2018-07-04T15:57:52.400Z,4.57
2018-07-04T16:00:32.203Z,5.63
2018-07-04T16:03:12.491Z,5.83
2018-07-04T16:05:52.643Z,4.10
2018-07-04T16:08:32.835Z,3.77
2018-07-04T16:11:12.722Z,3.43
2018-07-04T16:13:52.884Z,4.27
2018-07-04T16:16:32.542Z,3.00
2018-07-04T16:19:12.560Z,4.93
2018-07-04T16:21:52.597Z,4.70
2018-07-04T16:24:32.798Z,6.77
2018-07-04T16:27:12.625Z,3.50
2018-07-04T16:29:52.625Z,7.80
2018-07-04T16:32:32.205Z,4.33
2018-07-04T16:35:11.829Z,3.30
2018-07-04T16:37:52.294Z,2.90
2018-07-04T16:40:31.897Z,2.50
2018-07-04T16:43:11.657Z,1.90
2018-07-04T16:45:51.355Z,1.97
2018-07-04T16:48:30.996Z,1.93
2018-07-04T16:51:10.693Z,3.17
2018-07-04T16:53:50.458Z,1.80
2018-07-04T16:56:30.492Z,1.60
2018-07-04T16:59:10.259Z,2.63
2018-07-04T17:01:50.290Z,2.37
2018-07-04T17:04:30.730Z,1.70
2018-07-04T17:07:10.547Z,1.67
2018-07-04T17:09:50.389Z,1.90
2018-07-04T17:12:30.044Z,1.90
2018-07-04T17:15:09.956Z,1.60
2018-07-04T17:17:50.037Z,3.80
2018-07-04T17:20:30.172Z,3.13
2018-07-04T17:23:09.790Z,5.13
2018-07-04T17:25:49.824Z,4.17
2018-07-04T17:28:29.811Z,2.00
2018-07-04T17:31:09.763Z,2.40
2018-07-04T17:33:49.595Z,2.67
2018-07-04T17:36:29.457Z,2.00
2018-07-04T17:39:09.358Z,2.07
2018-07-04T17:41:49.649Z,3.40
2018-07-04T17:44:29.610Z,2.00
2018-07-04T17:47:09.349Z,2.30
2018-07-04T17:49:49.157Z,2.40
2018-07-04T17:52:29.039Z,3.13
2018-07-04T17:55:08.946Z,4.97
2018-07-04T17:57:48.853Z,2.43
2018-07-04T18:00:28.706Z,2.40
2018-07-04T18:03:08.815Z,2.20
2018-07-04T18:05:49.019Z,3.33
2018-07-04T18:08:28.544Z,3.63
2018-07-04T18:11:08.348Z,2.90
2018-07-04T18:13:48.251Z,2.93
2018-07-04T18:16:28.244Z,4.90
2018-07-04T18:19:07.953Z,8.10
2018-07-04T18:21:47.617Z,3.00
2018-07-04T18:24:28.095Z,3.90
2018-07-04T18:27:07.790Z,3.43
2018-07-04T18:29:47.342Z,3.33
2018-07-04T18:32:26.979Z,3.33
2018-07-04T18:35:07.287Z,3.37
2018-07-04T18:37:47.032Z,2.83
2018-07-04T18:40:27.857Z,5.07
2018-07-04T18:43:07.722Z,2.80
2018-07-04T18:45:47.462Z,3.53
2018-07-04T18:48:27.126Z,2.80
2018-07-04T18:51:07.194Z,4.57
2018-07-04T18:53:47.095Z,2.53
2018-07-04T18:56:26.802Z,3.47
2018-07-04T18:59:06.428Z,4.97
2018-07-04T19:01:46.372Z,3.37
2018-07-04T19:04:25.951Z,3.37
2018-07-04T19:07:05.631Z,3.27
2018-07-04T19:09:45.486Z,5.73
2018-07-04T19:12:25.332Z,3.23
2018-07-04T19:15:05.412Z,3.93
2018-07-04T19:17:45.231Z,3.87
2018-07-04T19:20:25.027Z,5.40
2018-07-04T19:23:04.747Z,3.33
2018-07-04T19:25:39.158Z,3.87
2018-07-04T19:28:19.945Z,3.70
2018-07-04T19:30:59.685Z,3.30
2018-07-04T19:33:39.840Z,4.10
2018-07-04T19:36:19.480Z,3.77
2018-07-04T19:38:53.538Z,3.47
2018-07-04T19:41:33.424Z,3.00
2018-07-04T19:44:13.271Z,3.50
2018-07-04T19:46:53.074Z,3.23
2018-07-04T19:49:32.971Z,4.43
2018-07-04T19:52:12.959Z,5.63
2018-07-04T19:54:52.768Z,5.90
2018-07-04T19:57:33.026Z,3.67
2018-07-04T20:00:12.879Z,8.67
2018-07-04T20:02:52.879Z,3.30
2018-07-04T20:05:32.637Z,3.90
2018-07-04T20:08:12.362Z,4.70
2018-07-04T20:10:52.298Z,5.43
2018-07-04T20:13:32.003Z,6.87
2018-07-04T20:16:11.861Z,6.07
2018-07-04T20:18:51.575Z,6.23
2018-07-04T20:21:31.425Z,3.40
2018-07-04T20:24:11.110Z,5.83
2018-07-04T20:26:50.855Z,3.07
2018-07-04T20:29:30.679Z,6.50
2018-07-04T20:32:10.506Z,3.60
2018-07-04T20:34:50.543Z,3.63
2018-07-04T20:37:30.700Z,3.67
2018-07-04T20:40:10.416Z,3.47
2018-07-04T20:42:50.031Z,3.80
2018-07-04T20:45:29.895Z,4.10
2018-07-04T20:48:09.639Z,2.57
2018-07-04T20:50:49.324Z,2.97
2018-07-04T20:53:29.067Z,2.77
2018-07-04T20:56:08.864Z,4.83
2018-07-04T20:58:48.501Z,5.20
2018-07-04T21:01:28.124Z,2.50
2018-07-04T21:04:07.920Z,3.70
2018-07-04T21:06:47.622Z,3.53
2018-07-04T21:09:27.381Z,3.77
2018-07-04T21:12:07.444Z,5.57
2018-07-04T21:14:47.119Z,4.57
2018-07-04T21:17:26.756Z,3.20
2018-07-04T21:20:06.269Z,3.80
2018-07-04T21:22:46.466Z,3.37
2018-07-04T21:25:26.179Z,3.53
2018-07-04T21:28:05.987Z,3.80
2018-07-04T21:30:45.604Z,2.90
2018-07-04T21:33:25.357Z,3.33
2018-07-04T21:36:05.173Z,4.43
2018-07-04T21:38:45.932Z,3.80
2018-07-04T21:41:19.876Z,5.37
2018-07-04T21:43:59.667Z,3.67
2018-07-04T21:46:39.354Z,5.97
2018-07-04T21:49:19.058Z,8.37
2018-07-04T21:51:58.678Z,5.93
2018-07-04T21:54:38.551Z,6.47
2018-07-04T21:57:18.251Z,7.07
2018-07-04T21:59:57.943Z,8.53
2018-07-04T22:02:37.784Z,9.50
2018-07-04T22:05:17.631Z,7.90
2018-07-04T22:07:57.313Z,7.73
2018-07-04T22:10:37.008Z,7.33
2018-07-04T22:13:16.687Z,9.10
2018-07-04T22:15:56.241Z,5.93
2018-07-04T22:18:36.060Z,6.83
2018-07-04T22:21:15.678Z,5.73
2018-07-04T22:23:55.493Z,8.67
2018-07-04T22:26:35.195Z,5.80
2018-07-04T22:29:14.789Z,3.90
2018-07-04T22:31:54.531Z,4.33
2018-07-04T22:34:34.253Z,3.77
2018-07-04T22:37:14.103Z,5.17
2018-07-04T22:39:53.974Z,4.17
2018-07-04T22:42:33.698Z,3.97
2018-07-04T22:45:13.445Z,4.67
2018-07-04T22:47:53.399Z,4.90
2018-07-04T22:50:33.275Z,4.27
2018-07-04T22:53:12.911Z,4.53
2018-07-04T22:55:52.708Z,4.47
2018-07-04T22:58:32.592Z,5.40
2018-07-04T23:01:12.199Z,5.33
2018-07-04T23:03:45.903Z,5.77
2018-07-04T23:06:25.597Z,6.90
2018-07-04T23:09:05.868Z,5.97
2018-07-04T23:11:45.606Z,5.80
2018-07-04T23:14:25.292Z,6.43
2018-07-04T23:17:05.057Z,6.00
2018-07-04T23:19:44.686Z,5.97
2018-07-04T23:22:24.280Z,7.20
2018-07-04T23:25:04.435Z,5.63
2018-07-04T23:27:44.244Z,5.77
2018-07-04T23:30:23.826Z,3.80
2018-07-04T23:33:03.445Z,5.87
2018-07-04T23:35:43.202Z,4.87
2018-07-04T23:38:22.871Z,4.73
2018-07-04T23:41:02.775Z,5.53
2018-07-04T23:43:42.550Z,8.47
2018-07-04T23:46:22.161Z,3.90
2018-07-04T23:49:01.842Z,5.90
2018-07-04T23:51:41.600Z,5.63
2018-07-04T23:54:21.294Z,3.90
2018-07-04T23:57:00.992Z,4.03
2018-07-04T23:59:40.566Z,5.20
